createdAt,value
2018-03-06T00:00:36.960Z,4.01
2018-03-06T00:03:04.356Z,4.08
2018-03-06T00:05:31.769Z,3.70
2018-03-06T00:07:59.160Z,3.64
2018-03-06T00:10:26.585Z,3.62
2018-03-06T00:12:53.988Z,3.48
2018-03-06T00:15:21.396Z,3.17
2018-03-06T00:17:48.812Z,3.08
2018-03-06T00:20:16.219Z,3.24
2018-03-06T00:22:43.631Z,3.26
2018-03-06T00:25:11.027Z,3.10
2018-03-06T00:27:38.437Z,2.95
2018-03-06T00:30:05.835Z,2.86
2018-03-06T00:32:33.242Z,2.85
2018-03-06T00:35:00.653Z,2.78
2018-03-06T00:37:28.078Z,2.78
2018-03-06T00:39:55.485Z,2.82
2018-03-06T00:42:22.900Z,2.83
2018-03-06T00:44:50.298Z,2.85
2018-03-06T00:47:17.714Z,2.83
2018-03-06T00:49:45.117Z,2.79
2018-03-06T00:52:12.530Z,2.79
2018-03-06T00:54:39.932Z,2.78
2018-03-06T00:57:07.346Z,2.75
2018-03-06T00:59:34.753Z,2.75
2018-03-06T01:02:02.172Z,2.79
2018-03-06T01:04:29.564Z,2.79
2018-03-06T01:06:56.980Z,2.97
2018-03-06T01:09:24.381Z,2.99
2018-03-06T01:11:51.841Z,3.04
2018-03-06T01:14:19.250Z,2.81
2018-03-06T01:16:46.653Z,2.60
2018-03-06T01:19:14.069Z,2.60
2018-03-06T01:21:41.476Z,2.54
2018-03-06T01:24:08.888Z,2.51
2018-03-06T01:26:36.301Z,2.55
2018-03-06T01:29:03.703Z,2.50
2018-03-06T01:31:31.141Z,2.47
2018-03-06T01:33:58.518Z,2.47
2018-03-06T01:36:25.926Z,2.47
2018-03-06T01:38:53.333Z,2.46
2018-03-06T01:41:20.739Z,2.45
2018-03-06T01:43:48.144Z,2.40
2018-03-06T01:46:15.550Z,2.39
2018-03-06T01:48:42.962Z,2.35
2018-03-06T01:51:10.365Z,2.32
2018-03-06T01:53:37.773Z,2.36
2018-03-06T01:56:05.182Z,2.30
2018-03-06T01:58:32.587Z,2.32
2018-03-06T02:00:59.998Z,2.21
2018-03-06T02:03:27.417Z,2.16
2018-03-06T02:05:54.815Z,2.15
2018-03-06T02:08:22.633Z,2.14
2018-03-06T02:10:50.037Z,2.17
2018-03-06T02:13:17.456Z,2.11
2018-03-06T02:15:44.864Z,2.05
2018-03-06T02:18:12.271Z,2.20
2018-03-06T02:20:39.694Z,2.24
2018-03-06T02:23:07.102Z,1.93
2018-03-06T02:25:34.518Z,1.91
2018-03-06T02:28:01.914Z,1.90
2018-03-06T02:30:29.326Z,1.77
2018-03-06T02:32:56.724Z,1.73
2018-03-06T02:35:24.144Z,1.70
2018-03-06T02:37:51.565Z,1.73
2018-03-06T02:40:18.977Z,1.71
2018-03-06T02:42:46.373Z,1.84
2018-03-06T02:45:13.777Z,1.73
2018-03-06T02:47:41.186Z,1.61
2018-03-06T02:50:08.597Z,1.73
2018-03-06T02:52:35.991Z,1.93
2018-03-06T02:55:03.764Z,1.70
2018-03-06T02:57:31.166Z,1.44
2018-03-06T02:59:58.577Z,1.15
2018-03-06T03:02:25.977Z,0.99
2018-03-06T03:04:53.399Z,0.89
2018-03-06T03:07:20.802Z,0.71
2018-03-06T03:09:48.231Z,0.67
2018-03-06T03:12:15.623Z,0.57
2018-03-06T03:14:43.041Z,0.57
2018-03-06T03:17:10.443Z,0.47
2018-03-06T03:19:37.847Z,0.47
2018-03-06T03:22:05.264Z,0.49
2018-03-06T03:24:32.676Z,0.67
2018-03-06T03:27:00.089Z,0.74
2018-03-06T03:29:27.494Z,0.61
2018-03-06T03:31:54.912Z,0.41
2018-03-06T03:34:22.319Z,0.36
2018-03-06T03:36:49.738Z,0.32
2018-03-06T03:39:17.647Z,0.36
2018-03-06T03:41:45.059Z,0.37
2018-03-06T03:44:12.468Z,0.22
2018-03-06T03:46:39.880Z,0.16
2018-03-06T03:49:07.281Z,0.17
2018-03-06T03:51:34.705Z,0.31
2018-03-06T03:54:02.102Z,0.12
2018-03-06T03:56:29.522Z,0.12
2018-03-06T03:58:56.929Z,0.08
2018-03-06T04:01:24.341Z,0.09
2018-03-06T04:03:51.746Z,0.10
2018-03-06T04:06:19.152Z,0.20
2018-03-06T04:08:46.552Z,0.16
2018-03-06T04:11:13.973Z,0.34
2018-03-06T04:13:41.797Z,0.28
2018-03-06T04:16:09.245Z,0.09
2018-03-06T04:18:36.650Z,0.25
2018-03-06T04:21:04.073Z,0.19
2018-03-06T04:23:32.449Z,0.18
2018-03-06T04:25:59.872Z,0.16
2018-03-06T04:28:27.277Z,0.13
2018-03-06T04:30:54.675Z,0.03
2018-03-06T04:33:22.089Z,-0.01
2018-03-06T04:35:49.492Z,-0.01
2018-03-06T04:38:16.903Z,0.10
2018-03-06T04:40:44.309Z,0.25
2018-03-06T04:43:11.731Z,0.36
2018-03-06T04:45:39.141Z,0.40
2018-03-06T04:48:06.556Z,0.36
2018-03-06T04:50:33.971Z,0.34
2018-03-06T04:53:01.394Z,0.26
2018-03-06T04:55:28.797Z,0.24
2018-03-06T04:57:56.212Z,0.20
2018-03-06T05:00:23.623Z,0.28
2018-03-06T05:02:51.042Z,0.25
2018-03-06T05:05:18.448Z,0.25
2018-03-06T05:07:45.873Z,0.23
2018-03-06T05:10:13.278Z,0.31
2018-03-06T05:12:40.696Z,0.38
2018-03-06T05:15:08.105Z,0.56
2018-03-06T05:17:35.521Z,0.59
2018-03-06T05:20:02.923Z,0.35
2018-03-06T05:22:30.333Z,-0.16
2018-03-06T05:24:57.752Z,-0.20
2018-03-06T05:27:25.165Z,-0.46
2018-03-06T05:29:53.289Z,-0.59
2018-03-06T05:32:20.705Z,-0.64
2018-03-06T05:34:48.113Z,-0.53
2018-03-06T05:37:15.524Z,-0.66
2018-03-06T05:39:43.936Z,-0.79
2018-03-06T05:42:11.340Z,-0.77
2018-03-06T05:44:38.761Z,-0.80
2018-03-06T05:47:06.168Z,-0.69
2018-03-06T05:49:33.602Z,-0.70
2018-03-06T05:52:01.010Z,-0.36
2018-03-06T05:54:29.057Z,-0.47
2018-03-06T05:56:56.457Z,-0.52
2018-03-06T05:59:23.879Z,-0.66
2018-03-06T06:01:51.297Z,-0.71
2018-03-06T06:04:18.721Z,-0.76
2018-03-06T06:06:46.134Z,-0.75
2018-03-06T06:09:13.557Z,-0.80
2018-03-06T06:11:40.957Z,-0.69
2018-03-06T06:14:08.393Z,-0.77
2018-03-06T06:16:35.814Z,-0.77
2018-03-06T06:19:03.241Z,-0.77
2018-03-06T06:21:30.664Z,-0.65
2018-03-06T06:23:58.092Z,-0.57
2018-03-06T06:26:25.502Z,-0.56
2018-03-06T06:28:52.909Z,-0.29
2018-03-06T06:31:20.320Z,-0.13
2018-03-06T06:33:47.735Z,-0.05
2018-03-06T06:36:15.140Z,0.09
2018-03-06T06:38:42.570Z,0.06
2018-03-06T06:41:09.968Z,0.04
2018-03-06T06:43:37.379Z,0.18
2018-03-06T06:46:04.797Z,0.26
2018-03-06T06:48:32.206Z,0.40
2018-03-06T06:50:59.608Z,0.46
2018-03-06T06:53:27.317Z,0.67
2018-03-06T06:55:54.740Z,0.79
2018-03-06T06:58:22.145Z,0.78
2018-03-06T07:00:49.554Z,0.92
2018-03-06T07:03:16.956Z,0.89
2018-03-06T07:05:44.379Z,1.29
2018-03-06T07:08:11.790Z,1.61
2018-03-06T07:10:39.207Z,1.69
2018-03-06T07:13:06.660Z,1.58
2018-03-06T07:15:34.068Z,1.97
2018-03-06T07:18:01.489Z,2.27
2018-03-06T07:20:28.892Z,2.17
2018-03-06T07:22:56.302Z,2.01
2018-03-06T07:25:23.737Z,2.07
2018-03-06T07:27:51.134Z,2.04
2018-03-06T07:30:18.556Z,1.61
2018-03-06T07:32:45.964Z,1.74
2018-03-06T07:35:13.373Z,1.92
2018-03-06T07:37:40.798Z,2.00
2018-03-06T07:40:08.210Z,2.21
2018-03-06T07:42:35.621Z,2.33
2018-03-06T07:45:03.034Z,2.48
2018-03-06T07:47:30.446Z,2.56
2018-03-06T07:49:57.859Z,2.61
2018-03-06T07:52:25.264Z,2.73
2018-03-06T07:54:52.677Z,2.88
2018-03-06T07:57:20.081Z,2.95
2018-03-06T07:59:47.505Z,2.92
2018-03-06T08:02:14.901Z,2.96
2018-03-06T08:04:42.301Z,3.04
2018-03-06T08:07:09.718Z,3.05
2018-03-06T08:09:37.133Z,3.08
2018-03-06T08:12:04.543Z,3.23
2018-03-06T08:14:31.953Z,3.27
2018-03-06T08:16:59.360Z,3.39
2018-03-06T08:19:26.761Z,3.56
2018-03-06T08:21:54.176Z,3.67
2018-03-06T08:24:21.581Z,3.65
2018-03-06T08:26:48.994Z,3.73
2018-03-06T08:29:16.421Z,4.02
2018-03-06T08:31:43.837Z,3.57
2018-03-06T08:34:11.244Z,3.35
2018-03-06T08:36:38.652Z,3.35
2018-03-06T08:39:06.063Z,3.36
2018-03-06T08:41:33.492Z,3.27
2018-03-06T08:44:00.894Z,3.34
2018-03-06T08:46:28.310Z,3.45
2018-03-06T08:48:55.719Z,3.42
2018-03-06T08:51:24.058Z,3.26
2018-03-06T08:53:51.463Z,3.26
2018-03-06T08:56:18.872Z,3.51
2018-03-06T08:58:46.286Z,3.57
2018-03-06T09:01:13.705Z,3.45
2018-03-06T09:03:41.127Z,3.44
2018-03-06T09:06:08.517Z,3.62
2018-03-06T09:08:35.936Z,3.65
2018-03-06T09:11:03.341Z,3.75
2018-03-06T09:13:30.761Z,3.75
2018-03-06T09:15:58.185Z,3.86
2018-03-06T09:18:25.593Z,3.86
2018-03-06T09:20:53.009Z,3.69
2018-03-06T09:23:20.417Z,3.96
2018-03-06T09:25:47.821Z,3.93
2018-03-06T09:28:15.246Z,3.84
2018-03-06T09:30:42.651Z,3.84
2018-03-06T09:33:10.066Z,4.03
2018-03-06T09:35:37.468Z,4.20
2018-03-06T09:38:04.883Z,4.26
2018-03-06T09:40:32.292Z,4.43
2018-03-06T09:42:59.704Z,4.31
2018-03-06T09:45:27.109Z,4.51
2018-03-06T09:47:54.524Z,4.69
2018-03-06T09:50:21.929Z,4.71
2018-03-06T09:52:49.358Z,4.90
2018-03-06T09:55:16.762Z,5.03
2018-03-06T09:57:44.182Z,4.95
2018-03-06T10:00:11.594Z,5.07
2018-03-06T10:02:39.010Z,5.32
2018-03-06T10:05:06.421Z,5.53
2018-03-06T10:07:33.853Z,5.47
2018-03-06T10:10:01.274Z,5.49
2018-03-06T10:12:28.685Z,5.33
2018-03-06T10:14:56.105Z,5.78
2018-03-06T10:17:23.525Z,6.24
2018-03-06T10:19:50.936Z,6.53
2018-03-06T10:22:18.357Z,7.09
2018-03-06T10:24:45.828Z,6.64
2018-03-06T10:27:13.278Z,6.47
2018-03-06T10:29:40.697Z,6.53
2018-03-06T10:32:08.105Z,6.95
2018-03-06T10:34:35.535Z,7.31
2018-03-06T10:37:02.941Z,7.04
2018-03-06T10:39:30.382Z,7.16
2018-03-06T10:41:57.772Z,7.66
2018-03-06T10:44:25.219Z,7.74
2018-03-06T10:46:52.613Z,7.76
2018-03-06T10:49:20.038Z,7.62
2018-03-06T10:51:47.452Z,7.19
2018-03-06T10:54:14.870Z,7.36
2018-03-06T10:56:42.288Z,7.73
2018-03-06T10:59:09.798Z,7.84
2018-03-06T11:01:37.192Z,8.20
2018-03-06T11:04:04.620Z,8.40
2018-03-06T11:06:33.199Z,8.70
2018-03-06T11:09:00.614Z,8.63
2018-03-06T11:11:28.062Z,8.58
2018-03-06T11:13:55.488Z,8.26
2018-03-06T11:16:22.910Z,8.52
2018-03-06T11:18:50.318Z,8.06
2018-03-06T11:21:17.737Z,8.58
2018-03-06T11:23:45.158Z,8.84
2018-03-06T11:26:12.572Z,8.91
2018-03-06T11:28:39.985Z,8.76
2018-03-06T11:31:07.400Z,9.00
2018-03-06T11:33:34.835Z,9.19
2018-03-06T11:36:02.252Z,9.12
2018-03-06T11:38:29.656Z,9.27
2018-03-06T11:40:57.090Z,8.77
2018-03-06T11:43:24.518Z,8.58
2018-03-06T11:45:51.942Z,9.00
2018-03-06T11:48:19.349Z,9.26
2018-03-06T11:50:46.774Z,9.56
2018-03-06T11:53:14.195Z,9.85
2018-03-06T11:55:41.601Z,10.14
2018-03-06T11:58:09.014Z,9.49
2018-03-06T12:00:36.429Z,9.23
2018-03-06T12:03:03.840Z,9.46
2018-03-06T12:05:31.261Z,9.78
2018-03-06T12:07:58.673Z,10.09
2018-03-06T12:10:26.093Z,10.21
2018-03-06T12:12:53.515Z,10.06
2018-03-06T12:15:20.936Z,9.95
2018-03-06T12:17:48.356Z,10.14
2018-03-06T12:20:15.860Z,10.42
2018-03-06T12:22:43.671Z,10.40
2018-03-06T12:25:11.080Z,10.66
2018-03-06T12:27:38.499Z,10.89
2018-03-06T12:30:05.990Z,10.82
2018-03-06T12:32:33.345Z,10.45
2018-03-06T12:35:00.771Z,9.94
2018-03-06T12:37:28.181Z,9.85
2018-03-06T12:39:55.594Z,10.31
2018-03-06T12:42:23.010Z,9.94
2018-03-06T12:44:50.430Z,9.87
2018-03-06T12:47:17.845Z,9.83
2018-03-06T12:49:45.258Z,10.13
2018-03-06T12:52:12.682Z,10.24
2018-03-06T12:54:40.134Z,10.12
2018-03-06T12:57:07.510Z,9.67
2018-03-06T12:59:34.929Z,9.72
2018-03-06T13:02:02.354Z,9.90
2018-03-06T13:04:30.604Z,10.00
2018-03-06T13:06:58.075Z,9.87
2018-03-06T13:09:25.486Z,10.08
2018-03-06T13:11:52.916Z,10.26
2018-03-06T13:14:21.215Z,10.36
2018-03-06T13:16:48.634Z,10.55
2018-03-06T13:19:16.041Z,10.65
2018-03-06T13:21:43.473Z,10.82
2018-03-06T13:24:11.313Z,10.89
2018-03-06T13:26:38.728Z,10.97
2018-03-06T13:29:06.150Z,10.98
2018-03-06T13:31:33.572Z,10.76
2018-03-06T13:34:01.030Z,10.73
2018-03-06T13:36:28.412Z,10.59
2018-03-06T13:38:55.820Z,10.78
2018-03-06T13:41:23.240Z,10.71
2018-03-06T13:43:50.658Z,10.69
2018-03-06T13:46:18.062Z,10.75
2018-03-06T13:48:45.484Z,10.45
2018-03-06T13:51:12.904Z,10.71
2018-03-06T13:53:40.376Z,10.66
2018-03-06T13:56:07.789Z,10.60
2018-03-06T13:58:35.216Z,10.70
2018-03-06T14:01:02.629Z,10.33
2018-03-06T14:03:30.056Z,10.48
2018-03-06T14:05:57.465Z,10.72
2018-03-06T14:08:24.895Z,10.32
2018-03-06T14:10:52.304Z,10.39
2018-03-06T14:13:19.729Z,10.37
2018-03-06T14:15:47.146Z,10.50
2018-03-06T14:18:14.570Z,10.75
2018-03-06T14:20:41.973Z,10.41
2018-03-06T14:23:09.470Z,10.27
2018-03-06T14:25:37.349Z,10.46
2018-03-06T14:28:04.784Z,10.60
2018-03-06T14:30:32.190Z,10.76
2018-03-06T14:32:59.616Z,10.75
2018-03-06T14:35:27.038Z,10.38
2018-03-06T14:37:54.460Z,10.53
2018-03-06T14:40:21.869Z,10.62
2018-03-06T14:42:49.301Z,10.65
2018-03-06T14:45:16.731Z,10.85
2018-03-06T14:47:44.147Z,10.51
2018-03-06T14:50:11.562Z,10.48
2018-03-06T14:52:38.981Z,10.70
2018-03-06T14:55:06.930Z,10.65
2018-03-06T14:57:34.342Z,10.74
2018-03-06T15:00:01.753Z,10.74
2018-03-06T15:02:29.447Z,10.68
2018-03-06T15:04:56.857Z,10.47
2018-03-06T15:07:24.274Z,10.37
2018-03-06T15:09:51.703Z,10.68
2018-03-06T15:12:19.114Z,10.52
2018-03-06T15:14:46.537Z,10.10
2018-03-06T15:17:13.961Z,10.06
2018-03-06T15:19:41.698Z,10.07
2018-03-06T15:22:09.114Z,10.09
2018-03-06T15:24:36.534Z,10.13
2018-03-06T15:27:03.952Z,10.25
2018-03-06T15:29:31.375Z,10.49
2018-03-06T15:31:58.792Z,10.39
2018-03-06T15:34:26.212Z,10.49
2018-03-06T15:36:53.636Z,10.54
2018-03-06T15:39:21.066Z,10.41
2018-03-06T15:41:48.477Z,10.42
2018-03-06T15:44:15.906Z,10.53
2018-03-06T15:46:43.330Z,10.47
2018-03-06T15:49:10.757Z,10.51
2018-03-06T15:51:38.169Z,10.36
2018-03-06T15:54:05.602Z,10.34
2018-03-06T15:56:33.003Z,10.17
2018-03-06T15:59:00.432Z,10.16
2018-03-06T16:01:27.853Z,10.27
2018-03-06T16:03:55.277Z,10.43
2018-03-06T16:06:22.684Z,10.59
2018-03-06T16:08:50.101Z,10.36
2018-03-06T16:11:17.544Z,10.41
2018-03-06T16:13:44.968Z,10.40
2018-03-06T16:16:12.375Z,10.19
2018-03-06T16:18:39.802Z,10.26
2018-03-06T16:21:07.218Z,10.16
2018-03-06T16:23:34.637Z,10.15
2018-03-06T16:26:02.045Z,10.29
2018-03-06T16:28:29.448Z,9.93
2018-03-06T16:30:56.873Z,9.89
2018-03-06T16:33:24.287Z,9.81
2018-03-06T16:35:51.712Z,9.81
2018-03-06T16:38:19.128Z,9.98
2018-03-06T16:40:46.555Z,10.00
2018-03-06T16:43:13.961Z,9.69
2018-03-06T16:45:41.386Z,9.46
2018-03-06T16:48:08.803Z,9.41
2018-03-06T16:50:36.228Z,9.42
2018-03-06T16:53:03.638Z,9.16
2018-03-06T16:55:31.066Z,9.15
2018-03-06T16:57:58.470Z,9.03
2018-03-06T17:00:25.889Z,8.96
2018-03-06T17:02:53.293Z,8.87
2018-03-06T17:05:20.709Z,8.76
2018-03-06T17:07:48.128Z,8.66
2018-03-06T17:10:15.546Z,8.68
2018-03-06T17:12:42.952Z,8.75
2018-03-06T17:15:10.365Z,8.65
2018-03-06T17:17:37.780Z,8.57
2018-03-06T17:20:05.196Z,8.48
2018-03-06T17:22:32.607Z,8.30
2018-03-06T17:25:00.026Z,8.20
2018-03-06T17:27:27.434Z,8.10
2018-03-06T17:29:54.834Z,7.94
2018-03-06T17:32:22.253Z,7.83
2018-03-06T17:34:49.664Z,7.70
2018-03-06T17:37:17.092Z,7.70
2018-03-06T17:39:44.501Z,7.78
2018-03-06T17:42:11.908Z,7.78
2018-03-06T17:44:39.318Z,7.68
2018-03-06T17:47:06.736Z,7.58
2018-03-06T17:49:34.141Z,7.82
2018-03-06T17:52:01.557Z,7.81
2018-03-06T17:54:28.961Z,7.78
2018-03-06T17:56:57.085Z,7.85
2018-03-06T17:59:24.497Z,7.67
2018-03-06T18:01:51.922Z,7.68
2018-03-06T18:04:19.320Z,7.68
2018-03-06T18:06:46.783Z,7.57
2018-03-06T18:09:14.192Z,7.57
2018-03-06T18:11:41.607Z,7.73
2018-03-06T18:14:09.014Z,7.81
2018-03-06T18:16:36.431Z,7.69
2018-03-06T18:19:03.835Z,7.55
2018-03-06T18:21:31.254Z,7.44
2018-03-06T18:23:58.656Z,7.35
2018-03-06T18:26:26.073Z,7.22
2018-03-06T18:28:53.480Z,7.22
2018-03-06T18:31:20.896Z,7.22
2018-03-06T18:33:48.300Z,7.07
2018-03-06T18:36:15.725Z,7.02
2018-03-06T18:38:43.138Z,6.98
2018-03-06T18:41:10.542Z,7.04
2018-03-06T18:43:37.954Z,7.04
2018-03-06T18:46:05.354Z,7.07
2018-03-06T18:48:32.782Z,6.88
2018-03-06T18:51:11.885Z,6.83
2018-03-06T18:53:39.288Z,6.81
2018-03-06T18:56:06.693Z,6.90
2018-03-06T18:58:34.813Z,6.85
2018-03-06T19:01:14.133Z,6.91
2018-03-06T19:03:53.282Z,6.92
2018-03-06T19:09:23.661Z,6.90
2018-03-06T19:11:51.085Z,6.96
2018-03-06T19:14:18.486Z,6.90
2018-03-06T19:16:45.896Z,6.92
2018-03-06T19:19:13.313Z,6.93
2018-03-06T19:21:40.716Z,6.81
2018-03-06T19:24:08.138Z,6.82
2018-03-06T19:26:35.649Z,6.78
2018-03-06T19:29:03.079Z,6.90
2018-03-06T19:31:30.485Z,6.85
2018-03-06T19:33:57.901Z,6.72
2018-03-06T19:36:25.322Z,6.74
2018-03-06T19:38:52.741Z,6.72
2018-03-06T19:41:20.158Z,6.76
2018-03-06T19:43:47.566Z,6.61
2018-03-06T19:46:14.966Z,6.65
2018-03-06T19:48:42.384Z,6.69
2018-03-06T19:51:09.795Z,6.67
2018-03-06T19:53:37.200Z,6.79
2018-03-06T19:56:04.617Z,6.98
2018-03-06T19:58:32.033Z,6.97
2018-03-06T20:00:59.440Z,6.89
2018-03-06T20:03:26.855Z,7.15
2018-03-06T20:05:54.257Z,7.15
2018-03-06T20:08:21.689Z,7.37
2018-03-06T20:10:49.100Z,7.18
2018-03-06T20:13:16.518Z,7.17
2018-03-06T20:15:44.567Z,7.26
2018-03-06T20:18:12.005Z,7.53
2018-03-06T20:20:39.459Z,7.43
2018-03-06T20:23:06.881Z,7.40
2018-03-06T20:25:39.938Z,7.47
2018-03-06T20:28:07.353Z,7.51
2018-03-06T20:30:40.506Z,7.48
2018-03-06T20:33:17.381Z,7.62
2018-03-06T20:35:44.788Z,7.58
2018-03-06T20:38:17.832Z,7.57
2018-03-06T20:40:45.242Z,7.53
2018-03-06T20:43:12.650Z,7.56
2018-03-06T20:45:45.702Z,7.49
2018-03-06T20:48:13.109Z,7.63
2018-03-06T20:50:40.533Z,7.56
2018-03-06T20:53:13.521Z,7.51
2018-03-06T20:55:40.939Z,7.57
2018-03-06T20:58:08.341Z,7.59
2018-03-06T21:00:35.761Z,7.41
2018-03-06T21:03:03.165Z,7.29
2018-03-06T21:05:30.594Z,7.18
2018-03-06T21:07:57.997Z,7.29
2018-03-06T21:10:25.720Z,7.29
2018-03-06T21:12:53.116Z,7.18
2018-03-06T21:15:20.533Z,7.26
2018-03-06T21:17:47.936Z,7.22
2018-03-06T21:20:15.349Z,7.28
2018-03-06T21:22:42.753Z,7.29
2018-03-06T21:25:10.167Z,7.47
2018-03-06T21:27:37.641Z,7.36
2018-03-06T21:30:05.058Z,7.37
2018-03-06T21:32:32.462Z,7.51
2018-03-06T21:34:59.892Z,7.41
2018-03-06T21:37:27.282Z,7.51
2018-03-06T21:39:54.693Z,7.28
2018-03-06T21:42:22.095Z,7.41
2018-03-06T21:44:49.502Z,7.40
2018-03-06T21:47:16.910Z,7.40
2018-03-06T21:49:44.326Z,7.48
2018-03-06T21:52:11.722Z,7.41
2018-03-06T21:54:39.137Z,7.48
2018-03-06T21:57:06.558Z,7.38
2018-03-06T22:02:40.504Z,7.15
2018-03-06T22:05:07.933Z,7.09
2018-03-06T22:07:35.433Z,7.09
2018-03-06T22:10:02.888Z,7.07
2018-03-06T22:12:30.302Z,7.24
2018-03-06T22:14:57.817Z,7.27
2018-03-06T22:17:25.266Z,7.07
2018-03-06T22:19:52.685Z,6.92
2018-03-06T22:22:20.133Z,6.92
2018-03-06T22:24:47.604Z,6.87
2018-03-06T22:27:15.055Z,7.00
2018-03-06T22:29:42.555Z,6.98
2018-03-06T22:32:09.992Z,6.89
2018-03-06T22:34:37.500Z,6.87
2018-03-06T22:37:04.927Z,6.89
2018-03-06T22:39:32.343Z,7.00
2018-03-06T22:41:59.826Z,6.98
2018-03-06T22:44:27.247Z,6.93
2018-03-06T22:46:54.674Z,6.91
2018-03-06T22:49:22.178Z,6.91
2018-03-06T22:51:49.606Z,7.01
2018-03-06T22:54:17.024Z,6.98
2018-03-06T22:56:44.446Z,7.03
2018-03-06T22:59:11.903Z,6.94
2018-03-06T23:01:39.430Z,7.00
2018-03-06T23:04:06.858Z,6.98
2018-03-06T23:06:34.287Z,7.00
2018-03-06T23:09:01.751Z,6.96
2018-03-06T23:11:29.177Z,6.94
2018-03-06T23:13:56.594Z,7.04
2018-03-06T23:16:24.045Z,7.01
2018-03-06T23:18:52.146Z,7.04
2018-03-06T23:21:19.572Z,6.99
2018-03-06T23:23:46.986Z,7.14
2018-03-06T23:26:14.410Z,7.11
2018-03-06T23:28:41.901Z,7.08
2018-03-06T23:31:09.342Z,7.07
2018-03-06T23:33:37.182Z,7.15
2018-03-06T23:36:04.930Z,7.10
2018-03-06T23:38:32.944Z,7.08
2018-03-06T23:41:00.390Z,7.18
2018-03-06T23:43:27.807Z,7.11
2018-03-06T23:45:55.219Z,7.09
2018-03-06T23:48:22.634Z,7.02
2018-03-06T23:50:50.039Z,7.11
2018-03-06T23:53:17.462Z,6.97
2018-03-06T23:55:44.981Z,6.86
2018-03-06T23:58:12.397Z,6.85
